createdAt,value
2018-06-21T00:04:52.132Z,21.40
2018-06-21T00:07:20.656Z,21.30
2018-06-21T00:09:49.167Z,21.30
2018-06-21T00:12:17.696Z,21.10
2018-06-21T00:14:46.240Z,21.10
2018-06-21T00:17:14.793Z,21.00
2018-06-21T00:19:43.336Z,21.00
2018-06-21T00:22:11.894Z,21.00
2018-06-21T00:24:40.413Z,21.00
2018-06-21T00:27:08.932Z,21.00
2018-06-21T00:34:33.859Z,20.90
2018-06-21T00:37:02.385Z,20.80
2018-06-21T00:39:30.918Z,20.80
2018-06-21T00:41:59.456Z,20.70
2018-06-21T00:44:28.026Z,20.80
2018-06-21T00:46:56.524Z,20.80
2018-06-21T00:49:25.045Z,20.80
2018-06-21T00:51:53.583Z,20.80
2018-06-21T00:54:22.115Z,20.90
2018-06-21T00:56:50.656Z,21.00
2018-06-21T00:59:19.179Z,21.00
2018-06-21T01:01:47.703Z,21.00
2018-06-21T01:04:16.259Z,21.00
2018-06-21T01:06:44.823Z,20.90
2018-06-21T01:09:13.393Z,20.80
2018-06-21T01:11:41.971Z,20.70
2018-06-21T01:16:38.653Z,20.60
2018-06-21T01:19:07.211Z,20.60
2018-06-21T01:24:03.967Z,20.40
2018-06-21T01:26:32.525Z,20.40
2018-06-21T01:29:01.079Z,20.30
2018-06-21T01:31:29.629Z,20.20
2018-06-21T01:33:58.214Z,20.20
2018-06-21T01:36:26.793Z,20.20
2018-06-21T01:38:55.349Z,20.20
2018-06-21T01:41:23.877Z,20.20
2018-06-21T01:43:52.427Z,20.10
2018-06-21T01:46:20.984Z,20.00
2018-06-21T01:48:49.528Z,19.90
2018-06-21T01:51:18.076Z,19.90
2018-06-21T01:53:46.617Z,19.90
2018-06-21T01:56:15.132Z,19.90
2018-06-21T01:58:43.665Z,19.90
2018-06-21T02:01:12.198Z,19.80
2018-06-21T02:08:37.086Z,19.90
2018-06-21T02:11:05.623Z,19.90
2018-06-21T02:13:34.144Z,19.90
2018-06-21T02:16:02.734Z,19.80
2018-06-21T02:18:31.257Z,19.80
2018-06-21T02:20:59.773Z,19.80
2018-06-21T02:25:56.450Z,19.80
2018-06-21T02:28:24.991Z,19.70
2018-06-21T02:30:53.574Z,19.60
2018-06-21T02:33:22.107Z,19.60
2018-06-21T02:35:50.671Z,19.50
2018-06-21T02:38:19.198Z,19.50
2018-06-21T02:40:47.773Z,19.60
2018-06-21T02:43:16.285Z,19.70
2018-06-21T02:45:44.853Z,19.60
2018-06-21T02:48:13.386Z,19.60
2018-06-21T02:50:41.965Z,19.50
2018-06-21T02:53:10.479Z,19.50
2018-06-21T02:55:39.006Z,19.50
2018-06-21T02:58:07.577Z,19.50
2018-06-21T03:00:36.105Z,19.50
2018-06-21T03:03:04.667Z,19.40
2018-06-21T03:05:33.221Z,19.40
2018-06-21T03:08:01.930Z,19.40
2018-06-21T03:10:30.513Z,19.50
2018-06-21T03:12:59.030Z,19.50
2018-06-21T03:15:27.585Z,19.60
2018-06-21T03:17:56.101Z,19.60
2018-06-21T03:20:24.644Z,19.60
2018-06-21T03:27:49.613Z,19.70
2018-06-21T03:30:18.112Z,19.70
2018-06-21T03:32:46.649Z,19.70
2018-06-21T03:35:15.209Z,19.70
2018-06-21T03:37:43.726Z,19.70
2018-06-21T03:40:12.276Z,19.70
2018-06-21T03:42:40.790Z,19.70
2018-06-21T03:45:09.325Z,19.80
2018-06-21T03:47:37.874Z,19.80
2018-06-21T03:50:06.412Z,19.80
2018-06-21T03:52:34.956Z,19.70
2018-06-21T03:55:03.535Z,19.60
2018-06-21T03:57:32.071Z,19.60
2018-06-21T04:00:00.604Z,19.60
2018-06-21T04:02:29.166Z,19.50
2018-06-21T04:04:57.697Z,19.40
2018-06-21T04:09:54.421Z,19.30
2018-06-21T04:12:22.956Z,19.30
2018-06-21T04:17:19.671Z,19.30
2018-06-21T04:19:48.209Z,19.30
2018-06-21T04:22:16.751Z,19.30
2018-06-21T04:24:45.278Z,19.30
2018-06-21T04:27:13.827Z,19.20
2018-06-21T04:29:42.357Z,19.20
2018-06-21T04:32:10.858Z,19.30
2018-06-21T04:34:39.425Z,19.40
2018-06-21T04:37:07.985Z,19.50
2018-06-21T04:39:36.493Z,19.50
2018-06-21T04:44:33.231Z,19.50
2018-06-21T04:47:01.805Z,19.50
2018-06-21T04:49:30.356Z,19.50
2018-06-21T04:51:58.881Z,19.50
2018-06-21T04:54:27.459Z,19.50
2018-06-21T04:56:55.983Z,19.60
2018-06-21T04:59:24.545Z,19.70
2018-06-21T05:01:53.107Z,19.70
2018-06-21T05:04:21.641Z,19.80
2018-06-21T05:06:50.183Z,19.80
2018-06-21T05:09:18.683Z,20.00
2018-06-21T05:11:47.223Z,20.10
2018-06-21T05:14:15.755Z,20.20
2018-06-21T05:16:44.291Z,20.20
2018-06-21T05:19:12.834Z,20.20
2018-06-21T05:21:41.373Z,20.20
2018-06-21T05:26:38.138Z,20.30
2018-06-21T05:29:06.698Z,20.30
2018-06-21T05:31:35.273Z,20.30
2018-06-21T05:34:03.840Z,20.30
2018-06-21T05:36:32.425Z,20.30
2018-06-21T05:39:00.972Z,20.30
2018-06-21T05:43:57.727Z,20.40
2018-06-21T05:51:22.623Z,20.70
2018-06-21T05:53:51.157Z,20.70
2018-06-21T05:58:47.970Z,20.90
2018-06-21T06:01:16.502Z,21.00
2018-06-21T06:03:45.073Z,21.20
2018-06-21T06:06:13.690Z,21.60
2018-06-21T06:11:10.442Z,22.10
2018-06-21T06:13:38.941Z,22.30
2018-06-21T06:18:35.769Z,22.70
2018-06-21T06:21:04.359Z,22.90
2018-06-21T06:23:32.883Z,23.10
2018-06-21T06:26:01.396Z,23.20
2018-06-21T06:28:30.124Z,23.30
2018-06-21T06:30:58.830Z,23.50
2018-06-21T06:33:27.385Z,23.50
2018-06-21T06:35:56.787Z,23.50
2018-06-21T06:38:25.311Z,23.40
2018-06-21T06:40:53.928Z,23.30
2018-06-21T06:43:22.482Z,23.50
2018-06-21T06:45:51.170Z,23.70
2018-06-21T06:48:19.678Z,23.90
2018-06-21T06:50:48.216Z,24.20
2018-06-21T06:53:16.813Z,24.30
2018-06-21T06:55:45.364Z,24.30
2018-06-21T06:58:13.890Z,24.30
2018-06-21T07:00:42.443Z,24.40
2018-06-21T07:03:10.971Z,24.70
2018-06-21T07:05:39.482Z,24.80
2018-06-21T07:08:08.054Z,24.90
2018-06-21T07:10:36.523Z,25.20
2018-06-21T07:13:05.061Z,25.30
2018-06-21T07:15:33.615Z,25.50
2018-06-21T07:18:02.159Z,25.60
2018-06-21T07:20:30.703Z,25.60
2018-06-21T07:22:59.214Z,25.70
2018-06-21T07:25:27.755Z,25.80
2018-06-21T07:27:56.249Z,25.90
2018-06-21T07:30:24.771Z,25.80
2018-06-21T07:32:53.331Z,25.90
2018-06-21T07:35:21.837Z,26.10
2018-06-21T07:37:50.394Z,26.10
2018-06-21T07:40:18.911Z,26.20
2018-06-21T07:45:15.635Z,26.80
2018-06-21T07:47:44.179Z,26.90
2018-06-21T07:50:12.736Z,26.90
2018-06-21T07:55:09.465Z,26.90
2018-06-21T07:57:37.983Z,27.20
2018-06-21T08:00:06.540Z,27.40
2018-06-21T08:02:35.099Z,27.50
2018-06-21T08:05:03.734Z,27.50
2018-06-21T08:07:32.216Z,27.60
2018-06-21T08:10:00.785Z,27.80
2018-06-21T08:12:29.328Z,27.90
2018-06-21T08:17:26.152Z,28.10
2018-06-21T08:19:54.672Z,28.20
2018-06-21T08:22:23.196Z,28.00
2018-06-21T08:24:51.748Z,27.90
2018-06-21T08:29:48.460Z,28.00
2018-06-21T08:32:17.096Z,27.90
2018-06-21T08:37:13.952Z,27.90
2018-06-21T08:39:42.434Z,27.90
2018-06-21T08:42:10.935Z,28.00
2018-06-21T08:44:39.500Z,28.20
2018-06-21T08:47:08.010Z,28.30
2018-06-21T08:49:36.540Z,28.40
2018-06-21T08:52:05.180Z,28.40
2018-06-21T08:54:33.662Z,28.60
2018-06-21T08:57:02.187Z,28.70
2018-06-21T08:59:30.775Z,28.80
2018-06-21T09:01:59.306Z,28.80
2018-06-21T09:04:27.808Z,28.70
2018-06-21T09:06:56.352Z,28.70
2018-06-21T09:09:24.880Z,28.70
2018-06-21T09:11:53.736Z,28.60
2018-06-21T09:14:22.295Z,28.50
2018-06-21T09:16:50.933Z,28.70
2018-06-21T09:19:19.453Z,28.60
2018-06-21T09:21:48.007Z,28.60
2018-06-21T09:24:16.505Z,28.90
2018-06-21T09:26:45.194Z,29.20
2018-06-21T09:29:13.750Z,29.30
2018-06-21T09:31:42.288Z,29.50
2018-06-21T09:34:10.780Z,29.20
2018-06-21T09:36:41.011Z,29.40
2018-06-21T09:39:15.841Z,29.90
2018-06-21T09:44:23.533Z,30.50
2018-06-21T09:46:57.431Z,30.40
2018-06-21T09:52:00.106Z,29.40
2018-06-21T09:54:28.724Z,29.20
2018-06-21T09:56:57.328Z,29.10
2018-06-21T09:59:25.836Z,29.40
2018-06-21T10:06:50.695Z,29.50
2018-06-21T10:09:19.260Z,29.70
2018-06-21T10:11:48.059Z,29.90
2018-06-21T10:14:16.658Z,30.30
2018-06-21T10:16:45.211Z,30.50
2018-06-21T10:21:41.939Z,30.30
2018-06-21T10:24:10.444Z,30.50
2018-06-21T10:26:38.927Z,30.50
2018-06-21T10:29:07.460Z,30.70
2018-06-21T10:31:36.075Z,30.30
2018-06-21T10:34:04.639Z,30.50
2018-06-21T10:36:33.168Z,30.80
2018-06-21T10:39:01.691Z,30.70
2018-06-21T10:41:30.223Z,30.30
2018-06-21T10:43:58.726Z,30.40
2018-06-21T10:46:27.217Z,30.60
2018-06-21T10:48:55.702Z,30.60
2018-06-21T10:51:24.257Z,30.10
2018-06-21T10:53:52.767Z,29.90
2018-06-21T10:56:21.359Z,29.40
2018-06-21T10:58:49.904Z,29.10
2018-06-21T11:01:18.469Z,29.00
2018-06-21T11:03:47.195Z,29.20
2018-06-21T11:06:15.754Z,29.40
2018-06-21T11:08:44.348Z,29.30
2018-06-21T11:11:12.843Z,29.20
2018-06-21T11:13:41.346Z,29.70
2018-06-21T11:16:09.852Z,30.10
2018-06-21T11:18:38.387Z,30.10
2018-06-21T11:23:35.103Z,30.20
2018-06-21T11:26:03.705Z,30.60
2018-06-21T11:28:32.274Z,30.70
2018-06-21T11:31:00.769Z,30.80
2018-06-21T11:33:29.324Z,31.10
2018-06-21T11:35:57.833Z,31.50
2018-06-21T11:38:26.323Z,31.70
2018-06-21T11:40:54.969Z,31.70
2018-06-21T11:45:51.701Z,31.50
2018-06-21T11:48:20.282Z,31.40
2018-06-21T11:50:48.788Z,31.50
2018-06-21T11:53:17.316Z,31.50
2018-06-21T11:55:45.831Z,31.50
2018-06-21T11:58:14.345Z,31.40
2018-06-21T12:00:42.906Z,31.60
2018-06-21T12:03:11.451Z,31.50
2018-06-21T12:05:40.027Z,31.50
2018-06-21T12:08:08.523Z,31.40
2018-06-21T12:10:37.031Z,31.30
2018-06-21T12:13:05.689Z,31.10
2018-06-21T12:20:30.632Z,31.30
2018-06-21T12:22:59.158Z,30.90
2018-06-21T12:25:27.700Z,30.90
2018-06-21T12:27:56.251Z,31.00
2018-06-21T12:30:24.763Z,31.00
2018-06-21T12:32:53.332Z,31.10
2018-06-21T12:35:21.807Z,31.20
2018-06-21T12:37:50.319Z,31.20
2018-06-21T12:40:18.851Z,31.00
2018-06-21T12:42:47.365Z,31.40
2018-06-21T12:45:15.930Z,31.90
2018-06-21T12:47:44.479Z,31.90
2018-06-21T12:52:41.239Z,32.00
2018-06-21T12:55:09.714Z,32.00
2018-06-21T12:57:38.265Z,32.00
2018-06-21T13:00:06.840Z,31.70
2018-06-21T13:02:35.342Z,31.40
2018-06-21T13:05:03.911Z,31.30
2018-06-21T13:07:32.440Z,31.10
2018-06-21T13:10:12.119Z,30.70
2018-06-21T13:12:52.297Z,30.20
2018-06-21T13:15:20.854Z,29.60
2018-06-21T13:17:49.321Z,29.50
2018-06-21T13:20:17.852Z,29.30
2018-06-21T13:22:46.396Z,29.20
2018-06-21T13:25:14.886Z,29.20
2018-06-21T13:27:43.386Z,29.20
2018-06-21T13:30:11.893Z,29.30
2018-06-21T13:32:40.427Z,29.10
2018-06-21T13:35:08.951Z,29.10
2018-06-21T13:37:37.488Z,29.10
2018-06-21T13:40:06.114Z,29.00
2018-06-21T13:47:31.018Z,29.30
2018-06-21T13:49:59.524Z,29.60
2018-06-21T13:52:28.061Z,29.90
2018-06-21T13:54:56.556Z,29.80
2018-06-21T13:57:25.074Z,29.60
2018-06-21T13:59:53.584Z,29.50
2018-06-21T14:04:50.234Z,29.90
2018-06-21T14:07:18.844Z,30.00
2018-06-21T14:09:47.395Z,30.40
2018-06-21T14:12:15.930Z,30.80
2018-06-21T14:14:44.433Z,31.10
2018-06-21T14:17:12.943Z,31.20
2018-06-21T14:19:41.457Z,31.10
2018-06-21T14:22:09.972Z,30.80
2018-06-21T14:24:38.757Z,30.50
2018-06-21T14:34:31.821Z,30.30
2018-06-21T14:37:00.356Z,30.50
2018-06-21T14:39:28.869Z,30.50
2018-06-21T14:41:57.392Z,30.80
2018-06-21T14:44:25.997Z,31.30
2018-06-21T14:46:54.586Z,32.20
2018-06-21T14:49:23.094Z,32.10
2018-06-21T14:54:19.883Z,32.80
2018-06-21T14:56:48.436Z,32.80
2018-06-21T14:59:16.963Z,33.40
2018-06-21T15:01:45.460Z,33.90
2018-06-21T15:04:13.960Z,33.00
2018-06-21T15:06:42.655Z,32.90
2018-06-21T15:09:12.973Z,32.70
2018-06-21T15:11:41.539Z,32.40
2018-06-21T15:14:10.057Z,32.40
2018-06-21T15:16:38.590Z,32.10
2018-06-21T15:19:07.145Z,32.40
2018-06-21T15:21:35.659Z,32.00
2018-06-21T15:26:32.359Z,31.10
2018-06-21T15:29:00.913Z,30.60
2018-06-21T15:31:29.381Z,30.20
2018-06-21T15:33:57.889Z,29.70
2018-06-21T15:38:57.512Z,29.00
2018-06-21T15:41:27.072Z,28.80
2018-06-21T15:43:55.583Z,28.50
2018-06-21T15:46:24.129Z,28.30
2018-06-21T15:48:52.684Z,28.20
2018-06-21T15:53:49.391Z,28.20
2018-06-21T15:56:17.897Z,28.20
2018-06-21T15:58:46.427Z,28.20
2018-06-21T16:01:15.013Z,28.00
2018-06-21T16:06:11.691Z,27.60
2018-06-21T16:08:40.246Z,27.40
2018-06-21T16:11:08.768Z,27.40
2018-06-21T16:16:05.494Z,27.30
2018-06-21T16:18:34.025Z,27.20
2018-06-21T16:21:02.575Z,27.10
2018-06-21T16:25:59.257Z,27.00
2018-06-21T16:30:55.977Z,26.90
2018-06-21T16:33:24.487Z,26.90
2018-06-21T16:35:52.980Z,27.00
2018-06-21T16:38:21.479Z,27.10
2018-06-21T16:45:46.356Z,27.00
2018-06-21T16:48:14.864Z,26.90
2018-06-21T16:50:43.351Z,26.80
2018-06-21T16:53:11.852Z,26.50
2018-06-21T16:55:40.426Z,26.50
2018-06-21T16:58:08.922Z,26.30
2018-06-21T17:00:37.432Z,26.30
2018-06-21T17:03:05.978Z,26.30
2018-06-21T17:05:34.488Z,26.10
2018-06-21T17:08:03.006Z,25.90
2018-06-21T17:10:31.583Z,25.90
2018-06-21T17:13:00.096Z,25.80
2018-06-21T17:15:28.571Z,25.70
2018-06-21T17:17:59.972Z,25.70
2018-06-21T17:20:28.501Z,25.70
2018-06-21T17:22:56.985Z,25.60
2018-06-21T17:27:54.637Z,25.50
2018-06-21T17:30:23.188Z,25.40
2018-06-21T17:32:51.688Z,25.20
2018-06-21T17:35:20.243Z,25.10
2018-06-21T17:37:48.792Z,25.00
2018-06-21T17:40:17.315Z,24.80
2018-06-21T17:45:14.135Z,24.50
2018-06-21T17:47:42.607Z,24.30
2018-06-21T17:50:11.183Z,24.00
2018-06-21T17:52:39.743Z,23.60
2018-06-21T17:55:08.315Z,23.20
2018-06-21T18:00:05.050Z,22.80
2018-06-21T18:02:33.588Z,22.70
2018-06-21T18:05:02.159Z,22.60
2018-06-21T18:09:58.888Z,22.60
2018-06-21T18:12:27.441Z,22.60
2018-06-21T18:14:56.038Z,22.60
2018-06-21T18:17:24.614Z,22.70
2018-06-21T18:19:53.165Z,22.60
2018-06-21T18:24:49.954Z,22.30
2018-06-21T18:27:18.490Z,22.30
2018-06-21T18:29:47.011Z,22.30
2018-06-21T18:32:15.743Z,22.30
2018-06-21T18:34:44.280Z,22.20
2018-06-21T18:39:41.006Z,22.20
2018-06-21T18:42:09.533Z,22.20
2018-06-21T18:44:38.122Z,22.20
2018-06-21T18:47:06.706Z,22.20
2018-06-21T18:49:35.273Z,22.20
2018-06-21T18:52:03.824Z,22.20
2018-06-21T18:54:32.354Z,22.10
2018-06-21T18:57:00.878Z,22.10
2018-06-21T18:59:29.396Z,22.00
2018-06-21T19:01:57.930Z,22.00
2018-06-21T19:04:26.474Z,22.00
2018-06-21T19:07:00.413Z,21.90
2018-06-21T19:09:34.255Z,21.80
2018-06-21T19:12:05.089Z,21.70
2018-06-21T19:19:30.033Z,21.60
2018-06-21T19:21:58.509Z,21.60
2018-06-21T19:26:55.287Z,21.70
2018-06-21T19:29:23.776Z,21.60
2018-06-21T19:31:52.300Z,21.60
2018-06-21T19:34:20.850Z,21.60
2018-06-21T19:36:49.405Z,21.60
2018-06-21T19:39:17.932Z,21.50
2018-06-21T19:41:46.506Z,21.40
2018-06-21T19:44:15.069Z,21.30
2018-06-21T19:46:43.623Z,21.10
2018-06-21T19:49:12.192Z,21.10
2018-06-21T19:51:40.726Z,21.10
2018-06-21T19:54:09.308Z,21.10
2018-06-21T19:56:37.816Z,21.10
2018-06-21T20:01:34.544Z,21.10
2018-06-21T20:04:03.131Z,21.10
2018-06-21T20:06:31.714Z,21.10
2018-06-21T20:09:00.320Z,21.00
2018-06-21T20:11:34.071Z,20.90
2018-06-21T20:14:02.576Z,20.40
2018-06-21T20:16:31.107Z,20.20
2018-06-21T20:19:07.684Z,19.90
2018-06-21T20:21:36.248Z,19.70
2018-06-21T20:24:04.814Z,19.60
2018-06-21T20:26:33.416Z,19.50
2018-06-21T20:29:01.980Z,19.50
2018-06-21T20:31:30.576Z,19.50
2018-06-21T20:33:59.122Z,19.40
2018-06-21T20:38:57.220Z,19.30
2018-06-21T20:41:25.797Z,19.20
2018-06-21T20:43:54.303Z,19.20
2018-06-21T20:46:22.859Z,19.30
2018-06-21T20:48:51.437Z,19.40
2018-06-21T20:51:20.015Z,19.40
2018-06-21T20:53:48.588Z,19.30
2018-06-21T20:56:17.127Z,19.30
2018-06-21T20:58:45.633Z,19.20
2018-06-21T21:01:14.145Z,19.20
2018-06-21T21:03:42.708Z,19.10
2018-06-21T21:06:11.190Z,19.00
2018-06-21T21:08:39.729Z,19.00
2018-06-21T21:11:08.278Z,18.90
2018-06-21T21:13:36.819Z,18.80
2018-06-21T21:16:05.420Z,18.80
2018-06-21T21:21:02.212Z,18.80
2018-06-21T21:23:30.801Z,18.80
2018-06-21T21:25:59.350Z,18.80
2018-06-21T21:28:27.957Z,18.70
2018-06-21T21:30:56.492Z,18.70
2018-06-21T21:33:25.024Z,18.60
2018-06-21T21:35:53.635Z,18.60
2018-06-21T21:38:22.173Z,18.60
2018-06-21T21:40:50.724Z,18.60
2018-06-21T21:43:19.258Z,18.60
2018-06-21T21:45:47.775Z,18.50
2018-06-21T21:48:16.361Z,18.60
2018-06-21T21:53:13.152Z,18.50
2018-06-21T21:55:41.711Z,18.50
2018-06-21T21:58:10.257Z,18.50
2018-06-21T22:00:49.166Z,18.50
2018-06-21T22:03:17.714Z,18.50
2018-06-21T22:05:46.288Z,18.40
2018-06-21T22:10:44.148Z,18.40
2018-06-21T22:13:13.233Z,18.50
2018-06-21T22:15:42.004Z,18.60
2018-06-21T22:18:10.629Z,18.50
2018-06-21T22:20:39.519Z,18.40
2018-06-21T22:23:08.067Z,18.40
2018-06-21T22:25:36.777Z,18.30
2018-06-21T22:28:05.312Z,18.20
2018-06-21T22:33:02.059Z,18.20
2018-06-21T22:35:30.612Z,18.20
2018-06-21T22:37:59.198Z,18.20
2018-06-21T22:40:27.709Z,18.20
2018-06-21T22:42:56.275Z,18.30
2018-06-21T22:45:24.825Z,18.30
2018-06-21T22:47:53.372Z,18.30
2018-06-21T22:50:21.893Z,18.20
2018-06-21T22:52:50.440Z,18.20
2018-06-21T22:55:18.950Z,18.20
2018-06-21T22:57:47.460Z,18.20
2018-06-21T23:00:16.903Z,18.20
2018-06-21T23:02:45.601Z,18.20
2018-06-21T23:05:14.235Z,18.20
2018-06-21T23:10:11.008Z,18.20
2018-06-21T23:15:07.738Z,18.20
2018-06-21T23:17:36.232Z,18.20
2018-06-21T23:20:04.796Z,18.20
2018-06-21T23:22:33.338Z,18.20
2018-06-21T23:25:01.872Z,18.30
2018-06-21T23:27:30.428Z,18.30
2018-06-21T23:29:58.946Z,18.30
2018-06-21T23:32:27.494Z,18.30
2018-06-21T23:34:56.056Z,18.30
2018-06-21T23:37:24.611Z,18.20
2018-06-21T23:39:53.148Z,18.20
2018-06-21T23:42:21.708Z,18.20
2018-06-21T23:44:50.268Z,18.10
2018-06-21T23:47:18.768Z,18.00
2018-06-21T23:49:48.192Z,17.90
2018-06-21T23:52:16.710Z,17.90
2018-06-21T23:54:45.278Z,17.90
2018-06-21T23:57:13.796Z,17.90
2018-06-21T23:59:42.335Z,17.80
